METAR Data
IDs: Format: Raw Decoded Include TAF

Data at: 1522 UTC 21 Sep 2018

KDHN 211453Z 13005KT 10SM FEW013 28/23 A3017 RMK AO2 SLP212 T02830228 51009
KDHN 211353Z 12006KT 10SM FEW018 27/23 A3016 RMK AO2 SLP209 T02670228
KDHN 211253Z 09007KT 10SM CLR 24/22 A3016 RMK AO2 SLP209 T02440222
KDHN 211153Z 09005KT 7SM CLR 23/21 A3015 RMK AO2 SLP203 T02280211 10244 20228 52008
KDHN 211053Z 08004KT 9SM CLR 23/21 A3014 RMK AO2 SLP199 T02330211
KDHN 210953Z AUTO 09005KT 9SM CLR 23/22 A3013 RMK AO2 SLP197 T02330217
KDHN 210853Z AUTO 10004KT 9SM FEW031 FEW043 SCT050 24/22 A3012 RMK AO2 SLP194 T02390217 51002
KDHN 210753Z AUTO 10005KT 7SM FEW029 SCT037 24/22 A3012 RMK AO2 SLP193 T02390217
KDHN 210653Z AUTO 13005KT 8SM CLR 23/22 A3012 RMK AO2 SLP192 T02330217
KDHN 210553Z AUTO 09006KT 10SM CLR 24/21 A3012 RMK AO2 SLP192 T02390211 10283 20228 51003
KDHN 210453Z AUTO 00000KT 10SM CLR 23/21 A3012 RMK AO2 SLP191 T02330211 403500217
KDHN 210353Z AUTO 00000KT 10SM CLR 24/21 A3012 RMK AO2 SLP192 T02390211
KDHN 210253Z AUTO 15004KT 10SM CLR 25/21 A3011 RMK AO2 SLP188 T02500211 53017
KDHN 210153Z AUTO 11003KT 10SM CLR 26/21 A3009 RMK AO2 SLP185 T02560211
KDHN 210053Z 11003KT 10SM CLR 27/21 A3006 RMK AO2 SLP175 T02720206
KDHN 202353Z 11003KT 10SM CLR 28/21 A3006 RMK AO2 SLP172 T02780211 10350 20278 53005
KDHN 202253Z 09004KT 10SM CLR 31/21 A3004 RMK AO2 SLP167 T03060206
KDHN 202153Z 09004KT 10SM CLR 33/22 A3004 RMK AO2 SLP164 T03330217
KDHN 202053Z 10004KT 10SM FEW055 32/21 A3004 RMK AO2 SLP165 T03170211 56015
KDHN 201953Z 14005KT 10SM FEW090 FEW120 33/21 A3005 RMK AO2 SLP169 T03280211
KDHN 201853Z 09009KT 10SM BKN055 34/21 A3007 RMK AO2 SLP174 T03440211
KDHN 201753Z 11005KT 10SM CLR 34/21 A3009 RMK AO2 SLP181 T03390211 10344 20228 58014
KDHN 201653Z 12003KT 10SM CLR 33/21 A3011 RMK AO2 SLP190 T03330211
KDHN 201553Z 00000KT 10SM CLR 32/22 A3013 RMK AO2 SLP194 T03220217
KDHN 201453Z 13004KT 10SM CLR 31/22 A3013 RMK AO2 SLP195 T03060222 51016
KDHN 201353Z 07005KT 10SM CLR 28/23 A3012 RMK AO2 SLP191 T02780228
KDHN 201253Z 06003KT 10SM FEW065 26/23 A3010 RMK AO2 SLP186 T02560233
KDHN 201153Z 00000KT 4SM BR FEW065 23/21 A3008 RMK AO2 SLP180 T02280211 10250 20217 53019
KDHN 201053Z 00000KT 5SM BR FEW060 23/21 A3005 RMK AO2 SLP170 T02280211
KDHN 200953Z AUTO 00000KT 4SM BR FEW060 23/21 A3004 RMK AO2 SLP166 T02280211
KDHN 200918Z AUTO 00000KT 3SM BR CLR 22/21 A3003 RMK AO2 T02220211
KDHN 200903Z AUTO 00000KT 1/2SM FG CLR 22/21 A3002 RMK AO2 T02170206 RVRNO
KDHN 200853Z AUTO 00000KT 1 1/2SM BR CLR 23/22 A3002 RMK AO2 SLP160 T02280217 55001
KDHN 200843Z AUTO 00000KT 1 3/4SM BR CLR 23/21 A3002 RMK AO2 T02280211
KDHN 200753Z AUTO 00000KT 5SM BR CLR 23/22 A3002 RMK AO2 SLP159 T02280217
KDHN 200653Z AUTO 00000KT 9SM CLR 23/22 A3002 RMK AO2 SLP161 T02330217
KDHN 200553Z AUTO 28003KT 10SM CLR 25/22 A3002 RMK AO2 SLP161 T02500222 10294 20244 50003
KDHN 200453Z AUTO 00000KT 10SM CLR 26/22 A3003 RMK AO2 SLP161 T02560222 403500222
KDHN 200353Z AUTO 00000KT 10SM CLR 26/22 A3003 RMK AO2 SLP162 T02560222